createdAt,value
2016-05-25T00:00:19.188Z,17.27
2016-05-25T00:01:19.425Z,17.14
2016-05-25T00:02:19.302Z,17.23
2016-05-25T00:03:19.321Z,17.2
2016-05-25T00:04:19.386Z,17.26
2016-05-25T00:05:19.467Z,17.26
2016-05-25T00:06:19.502Z,17.22
2016-05-25T00:07:19.550Z,17.19
2016-05-25T00:08:19.444Z,17.3
2016-05-25T00:09:19.650Z,17.19
2016-05-25T00:10:19.683Z,17.27
2016-05-25T00:11:19.749Z,17.24
2016-05-25T00:12:19.798Z,17.22
2016-05-25T00:13:19.832Z,17.23
2016-05-25T00:14:19.882Z,17.24
2016-05-25T00:15:19.962Z,17.24
2016-05-25T00:16:19.841Z,17.24
2016-05-25T00:17:20.046Z,17.24
2016-05-25T00:18:19.940Z,17.27
2016-05-25T00:19:20.161Z,17.24
2016-05-25T00:20:20.195Z,17.31
2016-05-25T00:21:20.245Z,17.2
2016-05-25T00:22:20.294Z,17.29
2016-05-25T00:23:20.343Z,17.12
2016-05-25T00:24:20.237Z,17.24
2016-05-25T00:25:20.443Z,17.22
2016-05-25T00:26:20.492Z,17.2
2016-05-25T00:27:20.526Z,17.2
2016-05-25T00:28:20.592Z,17.22
2016-05-25T00:29:20.657Z,17.23
2016-05-25T00:30:20.691Z,17.2
2016-05-25T00:31:20.615Z,17.29
2016-05-25T00:32:20.789Z,17.16
2016-05-25T00:33:20.839Z,17.15
2016-05-25T00:34:20.889Z,17.23
2016-05-25T00:35:20.954Z,17.2
2016-05-25T00:36:20.988Z,17.2
2016-05-25T00:37:21.052Z,17.22
2016-05-25T00:38:21.088Z,17.29
2016-05-25T00:39:21.153Z,17.29
2016-05-25T00:40:21.202Z,17.22
2016-05-25T00:41:21.252Z,17.15
2016-05-25T00:42:21.301Z,17.22
2016-05-25T00:43:21.351Z,17.12
2016-05-25T00:44:21.399Z,17.16
2016-05-25T00:45:21.324Z,17.26
2016-05-25T00:46:21.640Z,17.2
2016-05-25T00:47:21.565Z,17.2
2016-05-25T00:48:21.599Z,17.3
2016-05-25T00:49:21.648Z,17.22
2016-05-25T00:50:21.682Z,17.29
2016-05-25T00:51:21.575Z,17.22
2016-05-25T00:52:21.796Z,17.14
2016-05-25T00:53:21.846Z,17.27
2016-05-25T00:54:21.895Z,17.2
2016-05-25T00:55:21.946Z,17.3
2016-05-25T00:56:22.011Z,17.16
2016-05-25T00:57:21.888Z,17.24
2016-05-25T00:58:22.094Z,17.24
2016-05-25T00:59:22.159Z,17.26
2016-05-25T01:00:22.209Z,17.27
2016-05-25T01:01:22.102Z,17.16
2016-05-25T01:02:22.308Z,17.23
2016-05-25T01:03:22.358Z,17.12
2016-05-25T01:04:22.391Z,17.23
2016-05-25T01:05:22.441Z,17.2
2016-05-25T01:06:22.505Z,17.16
2016-05-25T01:07:22.368Z,17.15
2016-05-25T01:08:22.605Z,17.29
2016-05-25T01:09:22.483Z,17.27
2016-05-25T01:10:22.564Z,17.14
2016-05-25T01:11:22.597Z,17.12
2016-05-25T01:12:22.647Z,17.16
2016-05-25T01:13:22.681Z,17.16
2016-05-25T01:14:22.918Z,17.15
2016-05-25T01:15:22.968Z,17.19
2016-05-25T01:16:23.642Z,17.19
2016-05-25T01:17:23.051Z,17.16
2016-05-25T01:18:22.804Z,17.15
2016-05-25T01:19:23.135Z,17.27
2016-05-25T01:20:23.215Z,17.19
2016-05-25T01:21:23.093Z,17.23
2016-05-25T01:22:23.315Z,17.14
2016-05-25T01:23:23.364Z,17.12
2016-05-25T01:24:23.398Z,17.16
2016-05-25T01:25:23.292Z,17.2
2016-05-25T01:26:23.512Z,17.15
2016-05-25T01:27:23.610Z,17.15
2016-05-25T01:28:23.597Z,17.23
2016-05-25T01:29:23.662Z,17.14
2016-05-25T01:30:23.695Z,17.2
2016-05-25T01:31:23.636Z,17.2
2016-05-25T01:32:23.811Z,17.16
2016-05-25T01:33:23.703Z,17.12
2016-05-25T01:34:23.909Z,17.19
2016-05-25T01:35:23.944Z,17.19
2016-05-25T01:36:24.008Z,17.22
2016-05-25T01:37:23.902Z,17.16
2016-05-25T01:38:24.107Z,17.16
2016-05-25T01:39:24.157Z,17.19
2016-05-25T01:40:24.223Z,17.19
2016-05-25T01:41:24.272Z,17.2
2016-05-25T01:42:24.306Z,17.23
2016-05-25T01:43:24.355Z,17.22
2016-05-25T01:44:24.405Z,17.22
2016-05-25T01:45:24.299Z,17.15
2016-05-25T01:46:24.504Z,17.15
2016-05-25T01:47:24.569Z,17.19
2016-05-25T01:48:24.604Z,17.12
2016-05-25T01:49:24.654Z,17.19
2016-05-25T01:50:24.718Z,17.15
2016-05-25T01:51:24.767Z,17.15
2016-05-25T01:52:24.802Z,17.15
2016-05-25T01:53:24.695Z,17.15
2016-05-25T01:54:24.917Z,17.16
2016-05-25T01:55:24.934Z,17.15
2016-05-25T01:56:25.015Z,17.15
2016-05-25T01:57:25.050Z,17.2
2016-05-25T01:58:25.098Z,17.19
2016-05-25T01:59:25.148Z,17.15
2016-05-25T02:00:25.229Z,17.2
2016-05-25T02:01:25.436Z,17.23
2016-05-25T02:02:25.298Z,17.15
2016-05-25T02:03:25.362Z,17.23
2016-05-25T02:04:25.428Z,17.23
2016-05-25T02:05:25.446Z,17.15
2016-05-25T02:06:25.511Z,17.16
2016-05-25T02:07:25.405Z,17.16
2016-05-25T02:08:25.454Z,17.24
2016-05-25T02:09:25.660Z,17.2
2016-05-25T02:10:25.710Z,17.16
2016-05-25T02:11:25.759Z,17.15
2016-05-25T02:12:25.669Z,17.15
2016-05-25T02:13:25.858Z,17.22
2016-05-25T02:14:25.908Z,17.15
2016-05-25T02:15:25.973Z,17.15
2016-05-25T02:16:26.319Z,17.22
2016-05-25T02:17:26.056Z,17.14
2016-05-25T02:18:26.106Z,17.2
2016-05-25T02:19:25.984Z,17.2
2016-05-25T02:20:26.221Z,17.2
2016-05-25T02:21:26.254Z,17.2
2016-05-25T02:22:26.335Z,17.2
2016-05-25T02:23:26.354Z,17.2
2016-05-25T02:24:26.404Z,17.23
2016-05-25T02:25:26.453Z,17.16
2016-05-25T02:26:26.346Z,17.23
2016-05-25T02:27:26.551Z,17.16
2016-05-25T02:28:26.601Z,17.2
2016-05-25T02:29:26.650Z,17.16
2016-05-25T02:30:26.700Z,17.2
2016-05-25T02:31:27.109Z,17.16
2016-05-25T02:32:26.815Z,17.24
2016-05-25T02:33:26.865Z,17.14
2016-05-25T02:34:26.915Z,17.12
2016-05-25T02:35:26.964Z,17.23
2016-05-25T02:36:27.014Z,17.08
2016-05-25T02:37:27.063Z,17.19
2016-05-25T02:38:27.113Z,17.19
2016-05-25T02:39:27.146Z,17.06
2016-05-25T02:40:27.072Z,17.11
2016-05-25T02:41:27.261Z,17.08
2016-05-25T02:42:27.311Z,17.11
2016-05-25T02:43:27.361Z,17.09
2016-05-25T02:44:27.254Z,17.12
2016-05-25T02:45:27.460Z,17.12
2016-05-25T02:46:27.369Z,17.11
2016-05-25T02:47:27.574Z,17.11
2016-05-25T02:48:27.608Z,17.14
2016-05-25T02:49:27.657Z,17.09
2016-05-25T02:50:27.707Z,17.12
2016-05-25T02:51:27.602Z,17.12
2016-05-25T02:52:27.650Z,17.11
2016-05-25T02:53:27.872Z,17.15
2016-05-25T02:54:27.906Z,17.08
2016-05-25T02:55:27.971Z,17.11
2016-05-25T02:56:28.021Z,17.14
2016-05-25T02:57:28.054Z,17.14
2016-05-25T02:58:28.120Z,17.12
2016-05-25T02:59:28.184Z,17.12
2016-05-25T03:00:28.219Z,17.09
2016-05-25T03:01:28.268Z,17.11
2016-05-25T03:02:28.350Z,17.11
2016-05-25T03:03:28.367Z,17.06
2016-05-25T03:04:28.448Z,17.12
2016-05-25T03:05:28.466Z,17.12
2016-05-25T03:06:28.517Z,17.12
2016-05-25T03:07:28.566Z,17.05
2016-05-25T03:08:28.459Z,16.99
2016-05-25T03:09:28.508Z,17.01
2016-05-25T03:10:28.730Z,16.99
2016-05-25T03:11:28.763Z,16.94
2016-05-25T03:12:28.814Z,16.97
2016-05-25T03:13:28.879Z,17.02
2016-05-25T03:14:28.913Z,16.97
2016-05-25T03:15:28.962Z,17.05
2016-05-25T03:16:29.012Z,17.08
2016-05-25T03:17:29.061Z,16.99
2016-05-25T03:18:29.111Z,17.02
2016-05-25T03:19:29.160Z,16.99
2016-05-25T03:20:29.210Z,16.93
2016-05-25T03:21:29.260Z,17.04
2016-05-25T03:22:29.325Z,17.08
2016-05-25T03:23:29.218Z,17.04
2016-05-25T03:24:29.424Z,17.01
2016-05-25T03:25:29.474Z,17.06
2016-05-25T03:26:29.524Z,16.97
2016-05-25T03:27:29.573Z,17.01
2016-05-25T03:28:29.451Z,16.97
2016-05-25T03:29:29.500Z,17.08
2016-05-25T03:30:29.721Z,17.05
2016-05-25T03:31:29.865Z,16.94
2016-05-25T03:32:29.805Z,17.02
2016-05-25T03:33:29.870Z,17.08
2016-05-25T03:34:29.936Z,17.05
2016-05-25T03:35:29.813Z,17.02
2016-05-25T03:36:30.003Z,16.99
2016-05-25T03:37:30.069Z,16.96
2016-05-25T03:38:30.102Z,17.02
2016-05-25T03:39:30.152Z,17.08
2016-05-25T03:40:30.217Z,17.04
2016-05-25T03:41:30.110Z,17.02
2016-05-25T03:42:30.300Z,17.02
2016-05-25T03:43:30.194Z,16.96
2016-05-25T03:44:30.415Z,16.97
2016-05-25T03:45:30.465Z,17.01
2016-05-25T03:46:30.936Z,17.02
2016-05-25T03:47:30.564Z,17.02
2016-05-25T03:48:30.630Z,17.02
2016-05-25T03:49:30.507Z,16.96
2016-05-25T03:50:30.729Z,16.97
2016-05-25T03:51:30.762Z,17.01
2016-05-25T03:52:30.655Z,16.97
2016-05-25T03:53:30.862Z,16.97
2016-05-25T03:54:30.910Z,16.96
2016-05-25T03:55:30.961Z,16.97
2016-05-25T03:56:31.010Z,17.02
2016-05-25T03:57:30.904Z,16.96
2016-05-25T03:58:31.126Z,16.94
2016-05-25T03:59:31.160Z,17.02
2016-05-25T04:00:31.209Z,16.97
2016-05-25T04:01:32.117Z,16.9
2016-05-25T04:02:31.308Z,16.91
2016-05-25T04:03:31.357Z,16.89
2016-05-25T04:04:31.407Z,16.97
2016-05-25T04:05:31.473Z,16.96
2016-05-25T04:06:31.193Z,17.01
2016-05-25T04:07:31.570Z,17.04
2016-05-25T04:08:31.621Z,16.97
2016-05-25T04:09:31.655Z,16.97
2016-05-25T04:10:31.720Z,16.9
2016-05-25T04:11:31.613Z,16.96
2016-05-25T04:12:31.819Z,16.97
2016-05-25T04:13:31.869Z,17.01
2016-05-25T04:14:31.934Z,16.99
2016-05-25T04:15:31.967Z,17.01
2016-05-25T04:16:31.924Z,16.94
2016-05-25T04:17:32.066Z,16.91
2016-05-25T04:18:32.100Z,17.01
2016-05-25T04:19:32.173Z,17.01
2016-05-25T04:20:32.263Z,17.01
2016-05-25T04:21:32.336Z,16.93
2016-05-25T04:22:32.394Z,17.02
2016-05-25T04:23:32.482Z,16.94
2016-05-25T04:24:32.556Z,17.04
2016-05-25T04:25:32.630Z,17.02
2016-05-25T04:26:32.673Z,16.96
2016-05-25T04:27:32.731Z,17.01
2016-05-25T04:28:32.788Z,16.97
2016-05-25T04:29:32.873Z,16.99
2016-05-25T04:30:32.879Z,16.96
2016-05-25T04:31:32.791Z,16.93
2016-05-25T04:32:32.983Z,16.87
2016-05-25T04:33:33.036Z,16.99
2016-05-25T04:34:36.181Z,16.96
2016-05-25T04:35:32.981Z,16.9
2016-05-25T04:36:33.204Z,16.97
2016-05-25T04:37:33.239Z,16.9
2016-05-25T04:38:33.291Z,16.91
2016-05-25T04:39:33.762Z,16.83
2016-05-25T04:40:33.405Z,16.93
2016-05-25T04:41:33.440Z,16.94
2016-05-25T04:42:33.349Z,16.93
2016-05-25T04:43:33.555Z,16.93
2016-05-25T04:44:36.605Z,16.97
2016-05-25T04:45:33.654Z,16.93
2016-05-25T04:46:34.454Z,16.93
2016-05-25T04:47:33.754Z,16.93
2016-05-25T04:48:33.819Z,16.91
2016-05-25T04:49:33.837Z,16.89
2016-05-25T04:50:33.903Z,16.89
2016-05-25T04:51:34.514Z,16.9
2016-05-25T04:52:34.001Z,16.93
2016-05-25T04:53:34.050Z,16.94
2016-05-25T04:54:34.101Z,16.93
2016-05-25T04:55:34.150Z,16.93
2016-05-25T04:56:34.199Z,16.9
2016-05-25T04:57:34.249Z,16.93
2016-05-25T04:58:34.299Z,16.87
2016-05-25T04:59:34.177Z,16.87
2016-05-25T05:00:34.242Z,16.9
2016-05-25T05:01:35.119Z,16.9
2016-05-25T05:02:34.482Z,16.87
2016-05-25T05:03:34.547Z,16.89
2016-05-25T05:04:34.612Z,16.89
2016-05-25T05:05:34.490Z,16.83
2016-05-25T05:06:34.538Z,16.93
2016-05-25T05:07:34.745Z,16.89
2016-05-25T05:08:34.810Z,16.9
2016-05-25T05:09:34.843Z,16.9
2016-05-25T05:10:34.909Z,16.86
2016-05-25T05:11:34.943Z,16.86
2016-05-25T05:12:35.009Z,16.83
2016-05-25T05:13:34.886Z,16.93
2016-05-25T05:14:35.107Z,16.94
2016-05-25T05:15:35.173Z,16.96
2016-05-25T05:16:35.207Z,16.93
2016-05-25T05:17:35.256Z,16.87
2016-05-25T05:18:35.306Z,16.93
2016-05-25T05:19:35.042Z,16.94
2016-05-25T05:20:35.249Z,16.91
2016-05-25T05:21:35.470Z,16.9
2016-05-25T05:22:35.489Z,16.97
2016-05-25T05:23:35.381Z,16.93
2016-05-25T05:24:35.587Z,16.91
2016-05-25T05:25:35.653Z,16.96
2016-05-25T05:26:35.687Z,16.93
2016-05-25T05:27:35.736Z,16.93
2016-05-25T05:28:35.802Z,16.93
2016-05-25T05:29:35.850Z,16.81
2016-05-25T05:30:35.900Z,16.94
2016-05-25T05:31:36.013Z,16.93
2016-05-25T05:32:36.000Z,16.84
2016-05-25T05:33:36.049Z,17.02
2016-05-25T05:34:36.099Z,16.94
2016-05-25T05:35:36.149Z,16.84
2016-05-25T05:36:36.183Z,16.97
2016-05-25T05:37:36.247Z,16.83
2016-05-25T05:38:36.297Z,16.91
2016-05-25T05:39:36.206Z,16.94
2016-05-25T05:40:36.412Z,16.96
2016-05-25T05:41:36.446Z,16.84
2016-05-25T05:42:36.495Z,16.94
2016-05-25T05:43:36.404Z,16.93
2016-05-25T05:44:36.594Z,16.89
2016-05-25T05:45:36.644Z,16.9
2016-05-25T05:46:37.396Z,16.97
2016-05-25T05:47:36.587Z,16.87
2016-05-25T05:48:36.793Z,16.87
2016-05-25T05:49:36.842Z,16.89
2016-05-25T05:50:36.892Z,16.87
2016-05-25T05:51:38.895Z,16.97
2016-05-25T05:52:36.991Z,16.91
2016-05-25T05:53:36.744Z,16.94
2016-05-25T05:54:37.105Z,16.86
2016-05-25T05:55:37.156Z,16.87
2016-05-25T05:56:37.205Z,16.84
2016-05-25T05:57:37.270Z,16.86
2016-05-25T05:58:37.304Z,16.87
2016-05-25T05:59:37.338Z,16.84
2016-05-25T06:00:37.231Z,16.84
2016-05-25T06:01:37.968Z,16.81
2016-05-25T06:02:37.471Z,16.81
2016-05-25T06:03:37.396Z,16.78
2016-05-25T06:04:37.601Z,16.83
2016-05-25T06:05:37.651Z,16.79
2016-05-25T06:06:39.825Z,16.81
2016-05-25T06:07:37.749Z,16.76
2016-05-25T06:08:37.800Z,16.76
2016-05-25T06:09:37.693Z,16.84
2016-05-25T06:10:37.915Z,16.81
2016-05-25T06:11:37.777Z,16.76
2016-05-25T06:12:37.841Z,16.75
2016-05-25T06:13:37.876Z,16.84
2016-05-25T06:14:38.096Z,16.78
2016-05-25T06:15:37.974Z,16.86
2016-05-25T06:16:38.243Z,16.84
2016-05-25T06:17:38.245Z,16.87
2016-05-25T06:18:38.874Z,16.78
2016-05-25T06:19:38.345Z,16.83
2016-05-25T06:20:38.394Z,16.9
2016-05-25T06:21:38.445Z,16.83
2016-05-25T06:22:38.353Z,16.81
2016-05-25T06:23:38.543Z,16.87
2016-05-25T06:24:38.593Z,16.84
2016-05-25T06:25:38.642Z,16.91
2016-05-25T06:26:38.536Z,16.89
2016-05-25T06:27:38.741Z,16.87
2016-05-25T06:28:38.838Z,16.83
2016-05-25T06:29:38.683Z,16.83
2016-05-25T06:30:38.905Z,16.89
2016-05-25T06:31:39.392Z,16.86
2016-05-25T06:32:38.677Z,16.81
2016-05-25T06:33:46.492Z,16.89
2016-05-25T06:34:39.089Z,16.83
2016-05-25T06:35:39.138Z,16.81
2016-05-25T06:36:39.188Z,16.81
2016-05-25T06:37:39.253Z,16.78
2016-05-25T06:38:39.286Z,16.79
2016-05-25T06:39:39.336Z,16.84
2016-05-25T06:40:39.401Z,16.78
2016-05-25T06:41:39.452Z,16.81
2016-05-25T06:42:39.501Z,16.78
2016-05-25T06:43:43.425Z,16.78
2016-05-25T06:44:39.599Z,16.79
2016-05-25T06:45:39.665Z,16.75
2016-05-25T06:46:39.729Z,16.79
2016-05-25T06:47:39.732Z,16.86
2016-05-25T06:48:39.782Z,16.78
2016-05-25T06:49:39.847Z,16.76
2016-05-25T06:50:39.882Z,16.78
2016-05-25T06:51:39.618Z,16.75
2016-05-25T06:52:39.980Z,16.76
2016-05-25T06:53:39.906Z,16.81
2016-05-25T06:54:40.095Z,16.78
2016-05-25T06:55:40.145Z,16.75
2016-05-25T06:56:40.179Z,16.79
2016-05-25T06:57:40.244Z,16.79
2016-05-25T06:58:41.247Z,16.75
2016-05-25T06:59:40.327Z,16.79
2016-05-25T07:00:40.377Z,16.76
2016-05-25T07:01:40.708Z,16.79
2016-05-25T07:02:40.492Z,16.78
2016-05-25T07:03:40.400Z,16.83
2016-05-25T07:04:40.591Z,16.84
2016-05-25T07:05:40.641Z,16.79
2016-05-25T07:06:40.533Z,16.78
2016-05-25T07:07:40.583Z,16.87
2016-05-25T07:08:42.899Z,16.84
2016-05-25T07:09:40.838Z,16.83
2016-05-25T07:10:40.904Z,16.84
2016-05-25T07:11:40.782Z,16.84
2016-05-25T07:12:40.987Z,16.84
2016-05-25T07:13:41.037Z,16.84
2016-05-25T07:14:41.087Z,16.83
2016-05-25T07:15:41.135Z,16.86
2016-05-25T07:16:41.185Z,16.87
2016-05-25T07:17:41.235Z,16.79
2016-05-25T07:18:41.269Z,16.81
2016-05-25T07:19:41.350Z,16.81
2016-05-25T07:20:41.384Z,16.84
2016-05-25T07:21:41.449Z,16.83
2016-05-25T07:22:41.343Z,16.83
2016-05-25T07:23:41.532Z,16.84
2016-05-25T07:24:41.582Z,16.81
2016-05-25T07:25:41.475Z,16.79
2016-05-25T07:26:41.681Z,16.79
2016-05-25T07:27:41.747Z,16.79
2016-05-25T07:28:41.795Z,16.78
2016-05-25T07:29:41.830Z,16.83
2016-05-25T07:30:41.895Z,16.76
2016-05-25T07:31:42.711Z,16.78
2016-05-25T07:32:43.010Z,16.71
2016-05-25T07:33:42.059Z,16.79
2016-05-25T07:34:41.953Z,16.74
2016-05-25T07:35:42.143Z,16.78
2016-05-25T07:36:42.178Z,16.76
2016-05-25T07:37:42.227Z,16.81
2016-05-25T07:38:45.652Z,16.76
2016-05-25T07:39:42.169Z,16.78
2016-05-25T07:40:42.375Z,16.79
2016-05-25T07:41:42.284Z,16.75
2016-05-25T07:42:42.318Z,16.76
2016-05-25T07:43:42.524Z,16.71
2016-05-25T07:44:42.589Z,16.72
2016-05-25T07:45:42.638Z,16.78
2016-05-25T07:46:42.579Z,16.68
2016-05-25T07:47:42.738Z,16.74
2016-05-25T07:48:42.787Z,16.72
2016-05-25T07:49:42.682Z,16.75
2016-05-25T07:50:42.887Z,16.76
2016-05-25T07:51:42.718Z,16.74
2016-05-25T07:52:42.985Z,16.78
2016-05-25T07:53:43.035Z,16.65
2016-05-25T07:54:43.085Z,16.66
2016-05-25T07:55:43.135Z,16.64
2016-05-25T07:56:43.200Z,16.66
2016-05-25T07:57:43.233Z,16.69
2016-05-25T07:58:43.315Z,16.65
2016-05-25T07:59:43.333Z,16.69
2016-05-25T08:00:43.381Z,16.75
2016-05-25T08:01:43.447Z,16.71
2016-05-25T08:02:43.325Z,16.66
2016-05-25T08:03:44.140Z,16.66
2016-05-25T08:04:43.440Z,16.72
2016-05-25T08:05:43.630Z,16.72
2016-05-25T08:06:43.695Z,16.75
2016-05-25T08:07:43.730Z,16.69
2016-05-25T08:08:43.778Z,16.74
2016-05-25T08:09:43.828Z,16.75
2016-05-25T08:10:43.878Z,16.69
2016-05-25T08:11:43.944Z,16.69
2016-05-25T08:12:43.836Z,16.72
2016-05-25T08:13:44.026Z,16.79
2016-05-25T08:14:44.107Z,16.71
2016-05-25T08:15:44.141Z,16.74
2016-05-25T08:16:44.175Z,16.74
2016-05-25T08:17:44.225Z,16.81
2016-05-25T08:18:44.118Z,16.76
2016-05-25T08:19:44.168Z,16.79
2016-05-25T08:20:44.390Z,16.79
2016-05-25T08:21:44.423Z,16.74
2016-05-25T08:22:44.473Z,16.81
2016-05-25T08:23:44.944Z,16.76
2016-05-25T08:24:44.587Z,16.75
2016-05-25T08:25:44.621Z,16.78
2016-05-25T08:26:44.686Z,16.75
2016-05-25T08:27:44.579Z,16.76
2016-05-25T08:28:47.614Z,16.81
2016-05-25T08:29:44.835Z,16.86
2016-05-25T08:30:44.884Z,16.79
2016-05-25T08:31:45.075Z,16.75
2016-05-25T08:32:44.968Z,16.71
2016-05-25T08:33:45.034Z,16.78
2016-05-25T08:34:44.911Z,16.83
2016-05-25T08:35:45.117Z,16.84
2016-05-25T08:36:45.025Z,16.76
2016-05-25T08:37:45.232Z,16.79
2016-05-25T08:38:45.281Z,16.74
2016-05-25T08:39:45.316Z,16.81
2016-05-25T08:40:45.364Z,16.76
2016-05-25T08:41:45.274Z,16.75
2016-05-25T08:42:45.480Z,16.83
2016-05-25T08:43:45.513Z,16.86
2016-05-25T08:44:45.563Z,16.76
2016-05-25T08:45:45.628Z,16.81
2016-05-25T08:46:45.849Z,16.84
2016-05-25T08:47:45.727Z,16.78
2016-05-25T08:48:45.777Z,16.86
2016-05-25T08:49:45.810Z,16.74
2016-05-25T08:50:45.876Z,16.78
2016-05-25T08:51:45.926Z,16.81
2016-05-25T08:52:45.976Z,16.81
2016-05-25T08:53:47.962Z,16.76
2016-05-25T08:54:46.090Z,16.81
2016-05-25T08:55:46.124Z,16.79
2016-05-25T08:56:46.173Z,16.78
2016-05-25T08:57:46.223Z,16.84
2016-05-25T08:58:47.570Z,16.81
2016-05-25T08:59:46.323Z,16.72
2016-05-25T09:00:46.372Z,16.76
2016-05-25T09:01:46.421Z,16.76
2016-05-25T09:02:46.487Z,16.76
2016-05-25T09:03:47.880Z,16.79
2016-05-25T09:04:46.569Z,16.81
2016-05-25T09:05:46.620Z,16.81
2016-05-25T09:06:46.669Z,16.79
2016-05-25T09:07:46.703Z,16.78
2016-05-25T09:08:46.784Z,16.78
2016-05-25T09:09:46.817Z,16.79
2016-05-25T09:10:46.867Z,16.79
2016-05-25T09:11:46.917Z,16.74
2016-05-25T09:12:46.983Z,16.75
2016-05-25T09:13:46.860Z,16.72
2016-05-25T09:14:47.066Z,16.79
2016-05-25T09:15:47.131Z,16.84
2016-05-25T09:16:48.056Z,16.78
2016-05-25T09:17:47.245Z,16.78
2016-05-25T09:18:47.296Z,16.79
2016-05-25T09:19:47.173Z,16.75
2016-05-25T09:20:47.379Z,16.78
2016-05-25T09:21:47.413Z,16.71
2016-05-25T09:22:47.478Z,16.76
2016-05-25T09:23:47.512Z,16.83
2016-05-25T09:24:47.562Z,16.75
2016-05-25T09:25:47.610Z,16.81
2016-05-25T09:26:47.660Z,16.84
2016-05-25T09:27:47.584Z,16.81
2016-05-25T09:28:47.618Z,16.83
2016-05-25T09:29:47.825Z,16.83
2016-05-25T09:30:47.874Z,16.83
2016-05-25T09:31:48.096Z,16.81
2016-05-25T09:32:47.958Z,16.76
2016-05-25T09:33:48.023Z,16.79
2016-05-25T09:34:48.057Z,16.81
2016-05-25T09:35:48.122Z,16.81
2016-05-25T09:36:48.172Z,16.78
2016-05-25T09:37:48.221Z,16.86
2016-05-25T09:38:48.271Z,16.81
2016-05-25T09:39:48.320Z,16.81
2016-05-25T09:40:48.369Z,16.76
2016-05-25T09:41:48.420Z,16.78
2016-05-25T09:42:48.329Z,16.81
2016-05-25T09:43:48.503Z,16.87
2016-05-25T09:44:48.568Z,16.76
2016-05-25T09:45:48.618Z,16.79
2016-05-25T09:46:49.324Z,16.79
2016-05-25T09:47:48.717Z,16.79
2016-05-25T09:48:48.610Z,16.79
2016-05-25T09:49:48.816Z,16.84
2016-05-25T09:50:48.850Z,16.79
2016-05-25T09:51:48.759Z,16.79
2016-05-25T09:52:48.965Z,16.84
2016-05-25T09:53:48.874Z,16.83
2016-05-25T09:54:49.063Z,16.83
2016-05-25T09:55:49.113Z,16.87
2016-05-25T09:56:49.162Z,16.79
2016-05-25T09:57:49.666Z,16.86
2016-05-25T09:58:49.246Z,16.81
2016-05-25T09:59:49.311Z,16.84
2016-05-25T10:00:49.220Z,16.86
2016-05-25T10:01:49.457Z,16.86
2016-05-25T10:02:50.804Z,16.81
2016-05-25T10:03:49.541Z,16.86
2016-05-25T10:04:49.403Z,16.83
2016-05-25T10:05:49.625Z,16.87
2016-05-25T10:06:49.674Z,16.86
2016-05-25T10:07:49.583Z,16.81
2016-05-25T10:08:49.758Z,16.79
2016-05-25T10:09:49.808Z,16.79
2016-05-25T10:10:49.872Z,16.78
2016-05-25T10:11:49.906Z,16.87
2016-05-25T10:12:49.972Z,16.79
2016-05-25T10:13:50.005Z,16.79
2016-05-25T10:14:50.055Z,16.81
2016-05-25T10:15:50.105Z,16.72
2016-05-25T10:16:50.186Z,16.84
2016-05-25T10:17:50.220Z,16.79
2016-05-25T10:18:50.269Z,16.75
2016-05-25T10:19:50.302Z,16.86
2016-05-25T10:20:52.149Z,16.83
2016-05-25T10:21:50.402Z,16.84
2016-05-25T10:22:50.452Z,16.81
2016-05-25T10:23:50.516Z,16.89
2016-05-25T10:24:50.395Z,16.87
2016-05-25T10:25:50.460Z,16.81
2016-05-25T10:26:50.509Z,16.9
2016-05-25T10:27:50.716Z,16.87
2016-05-25T10:28:50.765Z,16.86
2016-05-25T10:29:50.814Z,16.83
2016-05-25T10:30:50.723Z,16.86
2016-05-25T10:31:53.304Z,16.79
2016-05-25T10:32:50.916Z,16.87
2016-05-25T10:33:50.856Z,16.89
2016-05-25T10:34:51.078Z,16.83
2016-05-25T10:35:50.940Z,16.87
2016-05-25T10:36:53.473Z,16.86
2016-05-25T10:37:51.195Z,16.9
2016-05-25T10:38:51.104Z,16.9
2016-05-25T10:39:51.153Z,16.87
2016-05-25T10:40:51.219Z,16.84
2016-05-25T10:41:51.425Z,16.83
2016-05-25T10:42:51.475Z,16.91
2016-05-25T10:43:51.524Z,16.84
2016-05-25T10:44:51.557Z,16.94
2016-05-25T10:45:51.450Z,16.89
2016-05-25T10:46:52.110Z,16.89
2016-05-25T10:47:52.113Z,16.84
2016-05-25T10:48:51.756Z,16.84
2016-05-25T10:49:51.649Z,16.86
2016-05-25T10:50:51.855Z,16.87
2016-05-25T10:51:51.921Z,16.89
2016-05-25T10:52:55.049Z,16.86
2016-05-25T10:53:52.004Z,16.9
2016-05-25T10:54:52.085Z,16.89
2016-05-25T10:55:52.119Z,16.81
2016-05-25T10:56:52.152Z,16.94
2016-05-25T10:57:53.671Z,16.97
2016-05-25T10:58:52.251Z,16.84
2016-05-25T10:59:52.145Z,16.94
2016-05-25T11:00:52.351Z,16.9
2016-05-25T11:01:52.400Z,16.97
2016-05-25T11:02:52.997Z,16.9
2016-05-25T11:03:52.499Z,16.89
2016-05-25T11:04:52.565Z,16.83
2016-05-25T11:05:52.615Z,16.9
2016-05-25T11:06:52.664Z,16.89
2016-05-25T11:07:52.573Z,16.94
2016-05-25T11:08:52.762Z,16.94
2016-05-25T11:09:52.828Z,16.93
2016-05-25T11:10:52.722Z,16.93
2016-05-25T11:11:52.912Z,17.01
2016-05-25T11:12:55.602Z,16.91
2016-05-25T11:13:52.854Z,16.94
2016-05-25T11:14:53.060Z,16.93
2016-05-25T11:15:53.094Z,16.91
2016-05-25T11:16:53.534Z,16.96
2016-05-25T11:17:55.147Z,16.93
2016-05-25T11:18:53.275Z,16.97
2016-05-25T11:19:53.324Z,16.91
2016-05-25T11:20:53.373Z,16.87
2016-05-25T11:21:53.408Z,16.94
2016-05-25T11:22:55.816Z,16.97
2016-05-25T11:23:53.350Z,17.09
2016-05-25T11:24:53.571Z,16.96
2016-05-25T11:25:53.716Z,17.01
2016-05-25T11:26:53.686Z,17.02
2016-05-25T11:27:54.313Z,16.97
2016-05-25T11:28:53.770Z,16.87
2016-05-25T11:29:53.819Z,16.99
2016-05-25T11:30:53.853Z,16.93
2016-05-25T11:31:53.903Z,16.87
2016-05-25T11:32:57.406Z,17.01
2016-05-25T11:33:53.846Z,17.01
2016-05-25T11:34:54.037Z,16.96
2016-05-25T11:35:54.117Z,16.84
2016-05-25T11:36:54.166Z,16.97
2016-05-25T11:37:56.357Z,16.94
2016-05-25T11:38:54.250Z,16.99
2016-05-25T11:39:54.300Z,16.89
2016-05-25T11:40:54.365Z,16.99
2016-05-25T11:41:54.242Z,16.9
2016-05-25T11:42:56.495Z,16.9
2016-05-25T11:43:54.497Z,16.99
2016-05-25T11:44:54.563Z,17.01
2016-05-25T11:45:54.597Z,16.9
2016-05-25T11:46:54.678Z,16.94
2016-05-25T11:47:56.572Z,16.86
2016-05-25T11:48:54.605Z,17.04
2016-05-25T11:49:54.811Z,16.99
2016-05-25T11:50:54.719Z,16.87
2016-05-25T11:51:54.910Z,16.89
2016-05-25T11:52:54.803Z,16.93
2016-05-25T11:53:54.852Z,16.94
2016-05-25T11:54:54.902Z,16.93
2016-05-25T11:55:55.108Z,17.01
2016-05-25T11:56:55.157Z,17.04
2016-05-25T11:57:55.207Z,16.94
2016-05-25T11:58:55.101Z,16.87
2016-05-25T11:59:55.322Z,16.89
2016-05-25T12:00:55.371Z,16.94
2016-05-25T12:01:55.265Z,16.93
2016-05-25T12:02:55.487Z,16.93
2016-05-25T12:03:55.505Z,16.93
2016-05-25T12:04:55.554Z,16.89
2016-05-25T12:05:55.603Z,16.94
2016-05-25T12:06:55.637Z,16.91
2016-05-25T12:07:55.703Z,16.84
2016-05-25T12:08:55.596Z,16.84
2016-05-25T12:09:55.646Z,16.86
2016-05-25T12:10:55.867Z,16.91
2016-05-25T12:11:55.931Z,16.91
2016-05-25T12:12:55.967Z,16.9
2016-05-25T12:13:56.016Z,16.97
2016-05-25T12:14:55.753Z,16.93
2016-05-25T12:15:56.099Z,16.89
2016-05-25T12:16:55.992Z,16.83
2016-05-25T12:17:56.230Z,16.91
2016-05-25T12:18:56.280Z,16.94
2016-05-25T12:19:56.329Z,16.93
2016-05-25T12:20:56.347Z,16.93
2016-05-25T12:21:56.397Z,16.94
2016-05-25T12:22:56.306Z,16.93
2016-05-25T12:23:56.496Z,16.93
2016-05-25T12:24:56.561Z,16.94
2016-05-25T12:25:56.610Z,16.93
2016-05-25T12:26:56.660Z,16.99
2016-05-25T12:27:56.710Z,16.99
2016-05-25T12:28:56.744Z,17.02
2016-05-25T12:29:56.809Z,16.94
2016-05-25T12:30:56.843Z,16.96
2016-05-25T12:31:56.892Z,16.99
2016-05-25T12:32:56.817Z,16.9
2016-05-25T12:33:57.007Z,16.93
2016-05-25T12:34:56.901Z,16.96
2016-05-25T12:35:57.106Z,16.94
2016-05-25T12:36:57.156Z,16.9
2016-05-25T12:37:58.706Z,17.01
2016-05-25T12:38:57.271Z,16.93
2016-05-25T12:39:57.304Z,16.99
2016-05-25T12:40:57.354Z,16.91
2016-05-25T12:41:57.403Z,16.96
2016-05-25T12:42:57.453Z,16.94
2016-05-25T12:43:57.487Z,16.94
2016-05-25T12:44:57.553Z,16.96
2016-05-25T12:45:57.602Z,16.84
2016-05-25T12:46:57.636Z,16.94
2016-05-25T12:47:58.014Z,16.99
2016-05-25T12:48:57.767Z,17.02
2016-05-25T12:49:57.817Z,17.04
2016-05-25T12:50:57.708Z,17.04
2016-05-25T12:51:57.914Z,16.99
2016-05-25T12:52:58.667Z,16.97
2016-05-25T12:53:57.999Z,16.99
2016-05-25T12:54:58.048Z,17.01